This is the latest recevied weather packets stored in our database for station/object G8PZT. If no packets are shown the sender has not sent any weather packets the latest 10 day(s).
| Time | Temp. | Humidity | Pressure | Rain* | Wind** | Luminosity | Snow |
|---|---|---|---|---|---|---|---|
| 1787916519 | 22.22° C | 38% | - | 0 mm | - | - | - |
| 1787916002 | 21.11° C | 39% | - | 0 mm | - | - | - |
| 1787915919 | 21.11° C | 40% | - | 0 mm | - | - | - |
| 1787915319 | 21.11° C | 40% | - | 0 mm | - | - | - |
| 1787914803 | 20.56° C | 40% | - | 0 mm | - | - | - |
| 1787914719 | 20.56° C | 40% | - | 0 mm | - | - | - |
| 1787914119 | 20.56° C | 41% | - | 0 mm | - | - | - |
| 1787913602 | 20.56° C | 41% | - | 0 mm | - | - | - |
| 1787913520 | 20.56° C | 42% | - | 0 mm | - | - | - |
| 1787912920 | 20° C | 41% | - | 0 mm | - | - | - |
| 1787912402 | 20.56° C | 39% | - | 0 mm | - | - | - |
| 1787912320 | 20.56° C | 38% | - | 0 mm | - | - | - |
| 1787911720 | 21.11° C | 38% | - | 0 mm | - | - | - |
| 1787911202 | 20.56° C | 42% | - | 0 mm | - | - | - |
| 1787910520 | 20° C | 43% | - | 0 mm | - | - | - |
| 1787910002 | 19.44° C | 46% | - | 0 mm | - | - | - |
| 1787909319 | 19.44° C | 45% | - | 0 mm | - | - | - |
| 1787908802 | 19.44° C | 47% | - | 0 mm | - | - | - |
| 1787908719 | 19.44° C | 49% | - | 0 mm | - | - | - |
| 1787907602 | 17.78° C | 53% | - | 0 mm | - | - | - |
| 1787907519 | 17.78° C | 53% | - | 0 mm | - | - | - |
| 1787906920 | 17.78° C | 54% | - | 0 mm | - | - | - |
| 1787906402 | 17.22° C | 58% | - | 0 mm | - | - | - |
| 1787906319 | 17.22° C | 57% | - | 0 mm | - | - | - |
| 1787905720 | 17.22° C | 58% | - | 0 mm | - | - | - |
* Rain latest hour (hover to see other rain measurements)
** Current wind speed in m/s (hover to see current wind gust speed)